createdAt,value
2019-04-06T00:01:24.568Z,28.50
2019-04-06T00:03:52.817Z,36.70
2019-04-06T00:06:21.716Z,30.15
2019-04-06T00:08:50.087Z,32.48
2019-04-06T00:11:18.774Z,28.52
2019-04-06T00:13:47.171Z,33.08
2019-04-06T00:16:15.617Z,34.58
2019-04-06T00:18:43.888Z,31.93
2019-04-06T00:21:12.133Z,33.70
2019-04-06T00:23:40.521Z,35.65
2019-04-06T00:26:09.386Z,34.48
2019-04-06T00:28:38.044Z,30.77
2019-04-06T00:31:34.832Z,30.52
2019-04-06T00:34:03.598Z,28.23
2019-04-06T00:36:31.949Z,30.17
2019-04-06T00:39:00.561Z,33.98
2019-04-06T00:41:29.225Z,31.20
2019-04-06T00:43:57.520Z,31.60
2019-04-06T00:46:25.905Z,27.90
2019-04-06T00:48:54.901Z,27.15
2019-04-06T00:51:23.586Z,32.15
2019-04-06T00:53:52.086Z,27.98
2019-04-06T00:56:20.638Z,29.02
2019-04-06T00:58:49.144Z,26.97
2019-04-06T01:01:17.184Z,29.57
2019-04-06T01:03:45.649Z,30.55
2019-04-06T01:06:13.585Z,27.15
2019-04-06T01:08:41.974Z,27.75
2019-04-06T01:11:10.040Z,30.50
2019-04-06T01:13:38.309Z,29.10
2019-04-06T01:16:06.294Z,29.00
2019-04-06T01:18:34.345Z,30.23
2019-04-06T01:21:02.622Z,30.65
2019-04-06T01:23:30.537Z,26.05
2019-04-06T01:26:07.064Z,31.05
2019-04-06T01:28:28.389Z,29.75
2019-04-06T01:30:56.619Z,32.50
2019-04-06T01:33:24.653Z,32.55
2019-04-06T01:35:52.919Z,30.08
2019-04-06T01:38:21.413Z,30.52
2019-04-06T01:40:49.529Z,34.45
2019-04-06T01:43:17.657Z,32.85
2019-04-06T01:45:45.672Z,33.60
2019-04-06T01:48:13.727Z,29.92
2019-04-06T01:50:41.831Z,29.55
2019-04-06T01:53:09.816Z,30.68
2019-04-06T01:55:37.922Z,33.50
2019-04-06T01:58:06.155Z,32.78
2019-04-06T02:00:34.163Z,30.85
2019-04-06T02:03:02.691Z,31.60
2019-04-06T02:05:30.901Z,29.85
2019-04-06T02:07:58.975Z,32.80
2019-04-06T02:10:26.866Z,34.73
2019-04-06T02:12:54.824Z,33.08
2019-04-06T02:15:22.701Z,33.15
2019-04-06T02:17:52.096Z,28.55
2019-04-06T02:20:20.630Z,29.65
2019-04-06T02:22:48.834Z,29.77
2019-04-06T02:25:16.884Z,35.98
2019-04-06T02:27:44.884Z,32.35
2019-04-06T02:30:20.981Z,28.50
2019-04-06T02:33:03.955Z,33.25
2019-04-06T02:35:41.349Z,29.25
2019-04-06T02:38:25.074Z,32.30
2019-04-06T02:41:15.337Z,27.62
2019-04-06T02:43:43.200Z,33.18
2019-04-06T02:46:11.546Z,31.12
2019-04-06T02:48:39.453Z,29.45
2019-04-06T02:51:07.590Z,36.30
2019-04-06T02:53:35.667Z,32.67
2019-04-06T02:56:03.833Z,34.10
2019-04-06T02:58:32.256Z,32.50
2019-04-06T03:01:01.067Z,32.30
2019-04-06T03:03:29.118Z,29.25
2019-04-06T03:05:57.419Z,30.55
2019-04-06T03:08:25.870Z,33.10
2019-04-06T03:10:53.780Z,31.87
2019-04-06T03:13:22.376Z,33.67
2019-04-06T03:15:50.437Z,32.28
2019-04-06T03:18:18.434Z,33.65
2019-04-06T03:20:46.629Z,33.40
2019-04-06T03:23:14.479Z,31.05
2019-04-06T03:25:42.386Z,28.45
2019-04-06T03:28:10.620Z,37.10
2019-04-06T03:30:38.901Z,33.30
2019-04-06T03:33:06.899Z,29.80
2019-04-06T03:35:35.400Z,33.42
2019-04-06T03:38:03.524Z,36.03
2019-04-06T03:40:32.158Z,34.35
2019-04-06T03:43:00.037Z,31.80
2019-04-06T03:45:28.286Z,31.10
2019-04-06T03:47:56.635Z,33.85
2019-04-06T03:50:24.860Z,30.45
2019-04-06T03:52:52.892Z,28.35
2019-04-06T03:55:20.885Z,32.78
2019-04-06T03:57:48.774Z,30.43
2019-04-06T04:00:16.929Z,37.85
2019-04-06T04:02:44.831Z,33.13
2019-04-06T04:05:13.358Z,33.78
2019-04-06T04:07:41.466Z,28.60
2019-04-06T04:10:17.229Z,31.37
2019-04-06T04:12:45.280Z,32.15
2019-04-06T04:15:13.318Z,30.27
2019-04-06T04:17:41.180Z,32.65
2019-04-06T04:20:09.545Z,33.58
2019-04-06T04:22:37.590Z,36.28
2019-04-06T04:25:06.158Z,27.90
2019-04-06T04:27:34.149Z,30.37
2019-04-06T04:30:02.400Z,31.80
2019-04-06T04:32:30.512Z,31.70
2019-04-06T04:34:58.659Z,30.05
2019-04-06T04:37:26.579Z,29.55
2019-04-06T04:39:54.474Z,34.48
2019-04-06T04:42:22.605Z,32.53
2019-04-06T04:44:51.468Z,35.25
2019-04-06T04:47:19.811Z,34.30
2019-04-06T04:49:48.083Z,34.73
2019-04-06T04:52:16.495Z,32.93
2019-04-06T04:54:44.841Z,31.42
2019-04-06T04:57:12.916Z,29.65
2019-04-06T04:59:40.902Z,29.48
2019-04-06T05:02:09.103Z,30.15
2019-04-06T05:04:36.989Z,31.12
2019-04-06T05:07:05.524Z,28.62
2019-04-06T05:09:33.455Z,32.23
2019-04-06T05:12:01.581Z,27.80
2019-04-06T05:15:00.047Z,25.00
2019-04-06T05:17:28.081Z,25.23
2019-04-06T05:19:56.389Z,22.93
2019-04-06T05:22:24.391Z,20.05
2019-04-06T05:24:52.291Z,20.88
2019-04-06T05:27:20.246Z,23.90
2019-04-06T05:29:48.842Z,21.57
2019-04-06T05:32:17.231Z,26.73
2019-04-06T05:34:45.281Z,23.60
2019-04-06T05:37:13.672Z,26.02
2019-04-06T05:39:41.864Z,23.95
2019-04-06T05:42:09.754Z,19.45
2019-04-06T05:44:37.908Z,21.90
2019-04-06T05:47:05.873Z,17.10
2019-04-06T05:49:33.747Z,21.07
2019-04-06T05:52:02.056Z,21.50
2019-04-06T05:54:30.096Z,22.17
2019-04-06T05:56:58.062Z,19.70
2019-04-06T05:59:26.379Z,17.90
2019-04-06T06:01:54.487Z,20.65
2019-04-06T06:04:22.544Z,26.77
2019-04-06T06:06:50.643Z,15.88
2019-04-06T06:09:18.674Z,18.87
2019-04-06T06:11:46.836Z,17.60
2019-04-06T06:14:14.770Z,18.92
2019-04-06T06:16:42.844Z,23.40
2019-04-06T06:19:11.172Z,18.48
2019-04-06T06:21:39.072Z,21.17
2019-04-06T06:24:07.177Z,23.10
2019-04-06T06:26:35.169Z,24.35
2019-04-06T06:29:03.125Z,24.05
2019-04-06T06:31:30.978Z,24.85
2019-04-06T06:33:58.933Z,24.98
2019-04-06T06:36:27.018Z,20.97
2019-04-06T06:38:55.211Z,24.43
2019-04-06T06:41:23.545Z,23.62
2019-04-06T06:43:51.464Z,26.00
2019-04-06T06:46:19.449Z,27.67
2019-04-06T06:48:47.483Z,33.10
2019-04-06T06:51:15.969Z,36.58
2019-04-06T06:53:44.350Z,35.23
2019-04-06T06:56:12.532Z,33.45
2019-04-06T06:58:41.503Z,33.02
2019-04-06T07:01:09.727Z,35.10
2019-04-06T07:03:38.263Z,36.10
2019-04-06T07:06:06.373Z,35.50
2019-04-06T07:08:34.418Z,36.77
2019-04-06T07:11:02.380Z,36.40
2019-04-06T07:13:30.239Z,40.52
2019-04-06T07:15:58.321Z,35.63
2019-04-06T07:18:26.366Z,34.00
2019-04-06T07:20:54.855Z,29.40
2019-04-06T07:23:22.961Z,40.08
2019-04-06T07:25:57.730Z,35.20
2019-04-06T07:28:21.410Z,35.88
2019-04-06T07:30:49.412Z,37.45
2019-04-06T07:33:17.579Z,37.13
2019-04-06T07:35:45.846Z,31.25
2019-04-06T07:38:13.832Z,31.33
2019-04-06T07:40:42.023Z,35.58
2019-04-06T07:43:09.917Z,32.88
2019-04-06T07:45:38.484Z,32.83
2019-04-06T07:48:06.677Z,31.95
2019-04-06T07:50:34.636Z,34.73
2019-04-06T07:53:02.949Z,33.48
2019-04-06T07:55:30.918Z,34.00
2019-04-06T07:57:58.933Z,35.30
2019-04-06T08:00:26.939Z,33.65
2019-04-06T08:02:55.328Z,34.53
2019-04-06T08:05:23.316Z,37.13
2019-04-06T08:07:51.289Z,32.35
2019-04-06T08:10:19.390Z,33.80
2019-04-06T08:12:47.346Z,32.42
2019-04-06T08:15:15.444Z,33.92
2019-04-06T08:17:43.565Z,32.60
2019-04-06T08:20:12.289Z,36.13
2019-04-06T08:22:40.274Z,31.62
2019-04-06T08:25:08.365Z,31.12
2019-04-06T08:27:36.710Z,32.35
2019-04-06T08:30:06.423Z,31.10
2019-04-06T08:32:34.529Z,32.00
2019-04-06T08:35:03.035Z,31.02
2019-04-06T08:37:31.058Z,32.95
2019-04-06T08:39:58.985Z,32.30
2019-04-06T08:42:27.209Z,30.50
2019-04-06T08:44:55.613Z,28.25
2019-04-06T08:47:23.605Z,28.27
2019-04-06T08:49:51.945Z,31.05
2019-04-06T08:52:20.134Z,27.22
2019-04-06T08:54:48.455Z,31.12
2019-04-06T08:57:16.373Z,28.15
2019-04-06T08:59:44.276Z,32.03
2019-04-06T09:02:12.740Z,28.05
2019-04-06T09:04:40.832Z,27.40
2019-04-06T09:07:09.014Z,26.30
2019-04-06T09:09:37.535Z,25.97
2019-04-06T09:12:05.778Z,25.27
2019-04-06T09:14:34.213Z,28.02
2019-04-06T09:17:02.681Z,30.70
2019-04-06T09:19:30.753Z,28.15
2019-04-06T09:21:59.168Z,27.77
2019-04-06T09:24:27.189Z,25.57
2019-04-06T09:26:55.644Z,26.70
2019-04-06T09:29:24.654Z,32.93
2019-04-06T09:31:53.410Z,28.12
2019-04-06T09:34:21.426Z,31.80
2019-04-06T09:36:49.509Z,27.20
2019-04-06T09:39:17.518Z,28.95
2019-04-06T09:41:45.427Z,29.50
2019-04-06T09:44:33.048Z,32.00
2019-04-06T09:47:18.514Z,31.15
2019-04-06T09:50:05.589Z,33.85
2019-04-06T09:52:58.921Z,32.08
2019-04-06T09:55:41.542Z,32.83
2019-04-06T09:58:23.265Z,34.67
2019-04-06T10:01:10.901Z,36.35
2019-04-06T10:03:45.200Z,36.10
2019-04-06T10:06:33.227Z,33.88
2019-04-06T10:09:21.033Z,33.58
2019-04-06T10:12:17.862Z,31.75
2019-04-06T10:15:05.631Z,34.48
2019-04-06T10:17:42.767Z,31.62
2019-04-06T10:20:36.384Z,29.55
2019-04-06T10:23:20.100Z,31.90
2019-04-06T10:26:06.629Z,33.35
2019-04-06T10:28:53.033Z,33.45
2019-04-06T10:31:46.630Z,34.60
2019-04-06T10:34:30.832Z,36.30
2019-04-06T10:37:30.460Z,31.65
2019-04-06T10:40:16.766Z,35.60
2019-04-06T10:43:10.454Z,33.53
2019-04-06T10:46:04.215Z,36.90
2019-04-06T10:48:41.886Z,30.12
2019-04-06T10:51:18.445Z,36.20
2019-04-06T10:54:18.035Z,35.88
2019-04-06T10:57:14.705Z,32.00
2019-04-06T11:00:02.599Z,32.13
2019-04-06T11:02:47.463Z,32.67
2019-04-06T11:05:29.733Z,34.05
2019-04-06T11:08:12.641Z,31.45
2019-04-06T11:11:02.465Z,34.50
2019-04-06T11:13:47.663Z,32.65
2019-04-06T11:16:30.879Z,29.77
2019-04-06T11:19:36.549Z,31.60
2019-04-06T11:22:21.927Z,30.55
2019-04-06T11:25:14.466Z,34.60
2019-04-06T11:27:55.209Z,31.82
2019-04-06T11:30:51.812Z,33.20
2019-04-06T11:33:45.330Z,32.85
2019-04-06T11:36:35.682Z,29.90
2019-04-06T11:39:29.059Z,34.50
2019-04-06T11:42:12.303Z,31.65
2019-04-06T11:44:58.908Z,26.50
2019-04-06T11:47:59.169Z,32.80
2019-04-06T11:50:55.468Z,24.60
2019-04-06T11:53:52.111Z,22.98
2019-04-06T11:56:31.261Z,21.25
2019-04-06T11:59:21.858Z,21.25
2019-04-06T12:02:03.141Z,12.93
2019-04-06T12:05:05.754Z,12.40
2019-04-06T12:08:11.450Z,13.27
2019-04-06T12:11:01.958Z,12.58
2019-04-06T12:13:47.704Z,13.10
2019-04-06T12:16:33.914Z,12.93
2019-04-06T12:19:33.430Z,11.40
2019-04-06T12:22:19.744Z,12.85
2019-04-06T12:25:14.510Z,9.53
2019-04-06T12:27:55.261Z,11.37
2019-04-06T12:30:38.674Z,13.83
2019-04-06T12:33:41.104Z,12.90
2019-04-06T12:36:28.792Z,17.42
2019-04-06T12:39:13.485Z,19.45
2019-04-06T12:42:10.481Z,20.02
2019-04-06T12:44:54.841Z,16.73
2019-04-06T12:47:37.629Z,17.00
2019-04-06T12:50:25.547Z,21.37
2019-04-06T12:53:16.955Z,21.85
2019-04-06T12:56:08.583Z,21.90
2019-04-06T12:58:58.956Z,21.10
2019-04-06T13:01:44.321Z,26.17
2019-04-06T13:04:31.833Z,23.95
2019-04-06T13:07:25.869Z,20.82
2019-04-06T13:10:17.358Z,22.67
2019-04-06T13:13:03.861Z,18.52
2019-04-06T13:15:44.199Z,21.68
2019-04-06T13:18:21.516Z,21.07
2019-04-06T13:21:15.075Z,20.80
2019-04-06T13:24:05.524Z,19.82
2019-04-06T13:26:46.374Z,21.40
2019-04-06T13:29:50.093Z,21.43
2019-04-06T13:32:37.155Z,20.65
2019-04-06T13:35:19.719Z,23.18
2019-04-06T13:38:06.100Z,23.02
2019-04-06T13:41:02.959Z,23.02
2019-04-06T13:43:53.684Z,24.02
2019-04-06T13:46:31.808Z,27.17
2019-04-06T13:49:07.943Z,20.77
2019-04-06T13:51:45.356Z,22.20
2019-04-06T13:54:32.693Z,19.80
2019-04-06T13:57:38.557Z,23.02
2019-04-06T14:00:30.127Z,21.23
2019-04-06T14:03:11.725Z,21.87
2019-04-06T14:06:11.109Z,20.05
2019-04-06T14:08:45.496Z,19.30
2019-04-06T14:11:42.229Z,21.60
2019-04-06T14:14:30.109Z,19.92
2019-04-06T14:17:16.243Z,19.77
2019-04-06T14:20:03.931Z,18.42
2019-04-06T14:22:56.087Z,18.33
2019-04-06T14:25:35.681Z,18.17
2019-04-06T14:28:26.030Z,19.73
2019-04-06T14:31:28.367Z,19.97
2019-04-06T14:34:13.112Z,20.87
2019-04-06T14:36:59.767Z,20.60
2019-04-06T14:39:50.650Z,20.57
2019-04-06T14:42:33.974Z,19.97
2019-04-06T14:45:20.302Z,19.47
2019-04-06T14:48:13.919Z,20.83
2019-04-06T14:51:07.910Z,17.67
2019-04-06T14:53:46.912Z,17.53
2019-04-06T14:56:33.482Z,19.70
2019-04-06T14:59:09.166Z,23.40
2019-04-06T15:01:58.201Z,19.73
2019-04-06T15:04:51.238Z,21.37
2019-04-06T15:07:40.913Z,20.30
2019-04-06T15:10:31.785Z,20.77
2019-04-06T15:13:10.206Z,19.97
2019-04-06T15:15:57.876Z,22.03
2019-04-06T15:18:51.340Z,18.80
2019-04-06T15:21:36.117Z,60.60
2019-04-06T15:24:36.247Z,33.93
2019-04-06T15:27:33.231Z,18.53
2019-04-06T15:30:20.647Z,19.00
2019-04-06T15:33:08.731Z,21.07
2019-04-06T15:35:59.325Z,18.30
2019-04-06T15:38:43.170Z,18.73
2019-04-06T15:41:29.441Z,19.20
2019-04-06T15:44:23.398Z,19.50
2019-04-06T15:47:20.397Z,19.43
2019-04-06T15:49:56.696Z,17.73
2019-04-06T15:52:56.191Z,17.17
2019-04-06T15:55:46.597Z,16.50
2019-04-06T15:58:29.294Z,15.97
2019-04-06T16:01:18.904Z,16.37
2019-04-06T16:04:05.537Z,17.60
2019-04-06T16:06:43.895Z,20.03
2019-04-06T16:09:30.800Z,17.17
2019-04-06T16:12:16.938Z,17.40
2019-04-06T16:15:19.268Z,16.87
2019-04-06T16:18:15.873Z,17.00
2019-04-06T16:20:49.726Z,14.60
2019-04-06T16:23:52.838Z,17.10
2019-04-06T16:26:26.757Z,15.10
2019-04-06T16:29:09.285Z,15.00
2019-04-06T16:32:10.145Z,14.70
2019-04-06T16:34:51.772Z,16.40
2019-04-06T16:37:45.057Z,15.20
2019-04-06T16:40:32.726Z,15.93
2019-04-06T16:43:16.568Z,16.37
2019-04-06T16:46:03.945Z,14.10
2019-04-06T16:49:06.801Z,15.23
2019-04-06T16:51:44.163Z,15.13
2019-04-06T16:54:33.151Z,14.43
2019-04-06T16:57:19.824Z,17.80
2019-04-06T17:00:19.522Z,16.65
2019-04-06T17:02:49.783Z,18.70
2019-04-06T17:05:29.152Z,19.55
2019-04-06T17:08:20.234Z,22.82
2019-04-06T17:10:59.451Z,21.25
2019-04-06T17:13:41.200Z,23.35
2019-04-06T17:16:39.250Z,20.80
2019-04-06T17:19:36.094Z,25.15
2019-04-06T17:22:14.955Z,25.45
2019-04-06T17:25:07.479Z,24.07
2019-04-06T17:27:53.994Z,26.62
2019-04-06T17:30:33.818Z,22.60
2019-04-06T17:33:17.351Z,24.57
2019-04-06T17:36:07.665Z,24.05
2019-04-06T17:39:01.548Z,23.20
2019-04-06T17:41:55.363Z,27.58
2019-04-06T17:44:41.654Z,23.38
2019-04-06T17:47:18.064Z,23.57
2019-04-06T17:50:05.298Z,25.85
2019-04-06T17:53:05.159Z,23.02
2019-04-06T17:56:00.211Z,29.90
2019-04-06T17:58:56.711Z,24.47
2019-04-06T18:01:57.272Z,25.23
2019-04-06T18:04:50.822Z,22.27
2019-04-06T18:07:41.015Z,25.57
2019-04-06T18:10:29.140Z,21.15
2019-04-06T18:13:12.891Z,18.05
2019-04-06T18:15:40.778Z,17.27
2019-04-06T18:18:09.389Z,16.40
2019-04-06T18:20:37.316Z,14.60
2019-04-06T18:23:05.616Z,18.80
2019-04-06T18:25:33.619Z,16.35
2019-04-06T18:28:01.620Z,18.02
2019-04-06T18:30:29.592Z,15.08
2019-04-06T18:33:03.039Z,14.15
2019-04-06T18:35:31.735Z,13.20
2019-04-06T18:38:12.509Z,13.68
2019-04-06T18:40:40.618Z,14.68
2019-04-06T18:43:08.867Z,15.28
2019-04-06T18:45:36.835Z,18.87
2019-04-06T18:48:04.844Z,14.58
2019-04-06T18:50:35.905Z,14.93
2019-04-06T18:53:02.685Z,16.73
2019-04-06T18:55:30.632Z,16.85
2019-04-06T18:58:08.851Z,20.45
2019-04-06T19:00:29.037Z,16.07
2019-04-06T19:03:00.958Z,14.23
2019-04-06T19:05:27.357Z,13.00
2019-04-06T19:07:55.451Z,14.00
2019-04-06T19:10:23.923Z,13.13
2019-04-06T19:12:51.883Z,17.07
2019-04-06T19:15:20.191Z,20.12
2019-04-06T19:17:48.452Z,20.62
2019-04-06T19:20:16.905Z,25.43
2019-04-06T19:22:45.015Z,25.23
2019-04-06T19:25:14.335Z,29.10
2019-04-06T19:27:42.585Z,29.37
2019-04-06T19:30:11.529Z,27.50
2019-04-06T19:32:39.522Z,24.10
2019-04-06T19:35:08.004Z,23.73
2019-04-06T19:37:36.204Z,23.60
2019-04-06T19:40:06.229Z,25.10
2019-04-06T19:42:34.461Z,24.63
2019-04-06T19:45:03.473Z,21.97
2019-04-06T19:47:31.467Z,17.85
2019-04-06T19:50:00.514Z,23.02
2019-04-06T19:52:28.563Z,25.20
2019-04-06T19:54:56.965Z,23.12
2019-04-06T19:57:25.024Z,26.33
2019-04-06T19:59:53.815Z,21.25
2019-04-06T20:02:22.058Z,21.02
2019-04-06T20:04:50.081Z,23.73
2019-04-06T20:07:18.412Z,24.60
2019-04-06T20:09:46.679Z,27.17
2019-04-06T20:12:15.749Z,23.95
2019-04-06T20:14:44.008Z,23.60
2019-04-06T20:17:12.229Z,25.27
2019-04-06T20:19:40.665Z,21.05
2019-04-06T20:22:09.129Z,25.17
2019-04-06T20:24:37.361Z,19.98
2019-04-06T20:27:05.315Z,24.07
2019-04-06T20:29:34.157Z,21.60
2019-04-06T20:32:02.392Z,23.77
2019-04-06T20:34:30.365Z,24.00
2019-04-06T20:36:59.180Z,19.05
2019-04-06T20:39:27.237Z,20.25
2019-04-06T20:41:55.302Z,17.17
2019-04-06T20:44:23.363Z,17.25
2019-04-06T20:46:51.824Z,19.40
2019-04-06T20:49:19.873Z,16.23
2019-04-06T20:51:47.764Z,16.42
2019-04-06T20:54:15.660Z,19.98
2019-04-06T20:56:53.931Z,19.60
2019-04-06T20:59:14.146Z,23.75
2019-04-06T21:01:42.814Z,20.88
2019-04-06T21:04:10.761Z,20.35
2019-04-06T21:06:39.144Z,22.13
2019-04-06T21:09:11.345Z,18.05
2019-04-06T21:11:39.431Z,18.27
2019-04-06T21:14:07.909Z,19.32
2019-04-06T21:16:36.010Z,17.80
2019-04-06T21:19:04.772Z,17.57
2019-04-06T21:21:32.784Z,18.80
2019-04-06T21:24:00.789Z,18.73
2019-04-06T21:26:29.345Z,22.13
2019-04-06T21:28:57.615Z,20.30
2019-04-06T21:31:25.611Z,20.65
2019-04-06T21:33:54.115Z,20.15
2019-04-06T21:36:22.217Z,24.60
2019-04-06T21:38:50.439Z,22.45
2019-04-06T21:41:18.635Z,22.05
2019-04-06T21:43:46.515Z,24.10
2019-04-06T21:46:14.491Z,24.02
2019-04-06T21:48:43.030Z,25.62
2019-04-06T21:51:11.389Z,19.10
2019-04-06T21:53:40.191Z,18.37
2019-04-06T21:56:08.491Z,19.40
2019-04-06T21:58:36.921Z,18.73
2019-04-06T22:01:07.073Z,19.15
2019-04-06T22:03:36.436Z,19.92
2019-04-06T22:06:04.953Z,23.85
2019-04-06T22:08:33.041Z,21.48
2019-04-06T22:11:01.721Z,28.65
2019-04-06T22:13:38.790Z,22.40
2019-04-06T22:16:06.733Z,27.73
2019-04-06T22:18:35.111Z,25.62
2019-04-06T22:21:03.622Z,27.50
2019-04-06T22:23:41.484Z,24.15
2019-04-06T22:26:02.729Z,29.07
2019-04-06T22:28:31.140Z,22.37
2019-04-06T22:30:59.127Z,22.85
2019-04-06T22:33:27.625Z,25.68
2019-04-06T22:35:55.725Z,19.20
2019-04-06T22:38:23.916Z,22.30
2019-04-06T22:40:52.283Z,22.22
2019-04-06T22:43:20.328Z,23.10
2019-04-06T22:45:48.594Z,23.47
2019-04-06T22:48:16.592Z,24.57
2019-04-06T22:50:44.744Z,22.67
2019-04-06T22:53:13.221Z,23.20
2019-04-06T22:55:41.423Z,26.07
2019-04-06T22:58:09.563Z,28.75
2019-04-06T23:00:45.452Z,29.27
2019-04-06T23:03:42.460Z,25.05
2019-04-06T23:06:14.252Z,28.07
2019-04-06T23:08:42.455Z,23.10
2019-04-06T23:11:10.528Z,24.63
2019-04-06T23:13:39.384Z,23.65
2019-04-06T23:16:08.226Z,21.35
2019-04-06T23:18:36.724Z,25.45
2019-04-06T23:21:05.332Z,21.25
2019-04-06T23:23:34.140Z,23.27
2019-04-06T23:26:02.646Z,25.72
2019-04-06T23:28:30.711Z,24.10
2019-04-06T23:30:58.832Z,28.80
2019-04-06T23:33:26.742Z,25.23
2019-04-06T23:35:55.041Z,24.32
2019-04-06T23:38:23.735Z,24.90
2019-04-06T23:40:52.430Z,27.87
2019-04-06T23:43:21.022Z,29.37
2019-04-06T23:45:49.006Z,26.93
2019-04-06T23:48:17.648Z,28.27
2019-04-06T23:50:45.585Z,30.08
2019-04-06T23:53:13.680Z,24.55
2019-04-06T23:55:42.172Z,32.53
2019-04-06T23:58:10.738Z,28.77
